CPX11 Details

Departure: Chek Lap Kok International (VHHH)
Arrival: Ted Stevens Anchorage International Airport (PANC) at N/A
Route: OCEAN V3 ENVAR M750 MEXIR M750 BUNGU Y81 SYOYU Y809 SPEAR Y808 PEXEL A590 POWAL A590 PINSO A590 HAMND NEELL6
Notes:


Current Weather Information
VHHH 251100Z 23009KT 8000 -SHRA FEW022 SCT035 28/24 Q1001 NOSIG
PANC 251055Z 16005KT 3SM FU OVC080 13/08 A2985 RMK AO2 T01280083